LEASLECO

Guest
Details From LEAS - Asturias
To LECO - A Coruna
Flight Number -
Tags decoded
Created
Modified
Stats Distance 106 nm / 197 km
Max Altitude 0 ft / 0 m
Waypoints 4
Social Downloads 2
Likes 0
Share

Download

Looking for another format? Having issues loading an existing format? Contact us
Advertisement - Login to hide

Notes

Requested: LEAS MASIP R42 ROXER LECO Unmatched points: R42

Route

LEAS MASIP ROXER LECO

ID Type Via Altitude (ft/m) Position (lat/lon) Dist (leg/tot) Name
O LEAS APT - 0 / 0 43.56350 / -6.03467 - / 0 nm Asturias
MASIP FIX - 0 / 0 43.38944 / -6.65556 29 / 29 nm
ROXER FIX - 0 / 0 43.21844 / -7.36010 32 / 61 nm
O LECO APT - 0 / 0 43.30226 / -8.37709 44 / 106 nm A Coruna

Altitude Profile

Advertisement - Login to hide

LEAS

Details ICAO LEAS (OVD)
Name Asturias Airport
Region Spain
Timezone Europe/Madrid (UTC+2.0)
Stats Elevation 416 ft / 127 m (AMSL)
Location 43.563600° -6.034620°
Runways 1
Magnetic Variation 1.255° W

METAR

LEAS 200600Z VRB02KT CAVOK 15/11 Q1003 NOSIG

Decode

TAF

TAF LEAS 200200Z 2003/2103 26007KT 9999 SCT060 TX18/2014Z TN13/2103Z PROB30 TEMPO 2005/2009 3000 -RA BR TEMPO 2015/2022 RA PROB40 TEMPO 2021/2024 25018G32KT RA

Decode

Departure Runways

ID Width Length Bearing (true/mag) Surface Threshold Overrun Markings Lighting
11 148 ft / 45 m 7,225 ft / 2,202 m 108.07° / 109.32° ASPHALT 0 ft / 0 m 164 ft / 50 m PREC-APP CENTERLINE EDGE THRESHOLD REIL-OMNI
29 148 ft / 45 m 7,225 ft / 2,202 m 288.09° / 289.34° ASPHALT 0 ft / 0 m 164 ft / 50 m PREC-APP CENTERLINE EDGE THRESHOLD CALVERT-ILS TDZ REIL-UNI

LECO

Details ICAO LECO (LCG)
Name A Coruna
Region Spain
Timezone Europe/Madrid (UTC+2.0)
Stats Elevation 330 ft / 101 m (AMSL)
Location 43.301900° -8.377220°
Runways 1
Magnetic Variation 2.009° W

METAR

LECO 200600Z 16004KT 070V240 9999 BKN025 16/13 Q1002 NOSIG

Decode

TAF

TAF LECO 200200Z 2003/2103 16009KT 9999 BKN025 TX17/2013Z TN12/2024Z TEMPO 2008/2013 17015G25KT TEMPO 2017/2103 RA PROB40 TEMPO 2018/2023 3000 RA BKN010

Decode

Destination Runways

ID Width Length Bearing (true/mag) Surface Threshold Overrun Markings Lighting
03 148 ft / 45 m 6,364 ft / 1,940 m 30.94° / 32.95° ASPHALT 0 ft / 0 m 0 ft / 0 m PREC-APP CENTERLINE EDGE THRESHOLD REIL-OMNI
21 148 ft / 45 m 6,364 ft / 1,940 m 210.94° / 212.95° ASPHALT 0 ft / 0 m 0 ft / 0 m PREC-APP CENTERLINE EDGE THRESHOLD REIL-OMNI

Approach Navaids

Runway Type Ident Frequency Range Bearing (true/mag) Slope Elevation
21 GS LCO 109.90 MHz 10 nm / 19 km 210.94° / 212.95 ° 3.00° 330 ft / 101 m (AMSL)
21 DME LCO 109.90 MHz 18 nm / 33 km - - 293 ft / 89 m (AMSL)
21 LOC-ILS LCO 109.90 MHz 18 nm / 33 km 210.94° / 212.95 ° - 330 ft / 101 m (AMSL)

Popular Alternatives